sensor_id;sensor_type;location;lat;lon;timestamp;pressure;altitude;pressure_sealevel;temperature;humidity
54465;BME280;40374;49.480;20.016;2023-04-08T00:00:01;94892.81;;;2.88;100.00
54465;BME280;40374;49.480;20.016;2023-04-08T00:02:55;94898.59;;;2.84;100.00
54465;BME280;40374;49.480;20.016;2023-04-08T00:05:23;94895.72;;;2.86;100.00
54465;BME280;40374;49.480;20.016;2023-04-08T00:07:51;94904.84;;;2.78;100.00
54465;BME280;40374;49.480;20.016;2023-04-08T00:10:18;94898.59;;;2.84;100.00
54465;BME280;40374;49.480;20.016;2023-04-08T00:12:46;94900.19;;;2.85;100.00
54465;BME280;40374;49.480;20.016;2023-04-08T00:15:14;94902.19;;;2.78;100.00
54465;BME280;40374;49.480;20.016;2023-04-08T00:17:42;94900.22;;;2.74;100.00
54465;BME280;40374;49.480;20.016;2023-04-08T00:20:10;94910.72;;;2.69;100.00
54465;BME280;40374;49.480;20.016;2023-04-08T00:22:37;94908.66;;;2.59;100.00
54465;BME280;40374;49.480;20.016;2023-04-08T00:25:05;94904.50;;;2.51;100.00
54465;BME280;40374;49.480;20.016;2023-04-08T00:27:32;94909.22;;;2.49;100.00
54465;BME280;40374;49.480;20.016;2023-04-08T00:30:00;94896.66;;;2.44;100.00
54465;BME280;40374;49.480;20.016;2023-04-08T00:32:28;94908.22;;;2.50;100.00
54465;BME280;40374;49.480;20.016;2023-04-08T00:34:57;94908.44;;;2.49;100.00
54465;BME280;40374;49.480;20.016;2023-04-08T00:37:24;94898.84;;;2.48;100.00
54465;BME280;40374;49.480;20.016;2023-04-08T00:39:52;94897.81;;;2.49;100.00
54465;BME280;40374;49.480;20.016;2023-04-08T00:42:20;94909.94;;;2.56;100.00
54465;BME280;40374;49.480;20.016;2023-04-08T00:44:50;94887.78;;;2.51;100.00
54465;BME280;40374;49.480;20.016;2023-04-08T00:47:18;94901.84;;;2.63;100.00
54465;BME280;40374;49.480;20.016;2023-04-08T00:49:45;94904.72;;;2.61;100.00
54465;BME280;40374;49.480;20.016;2023-04-08T00:52:13;94904.50;;;2.63;100.00
54465;BME280;40374;49.480;20.016;2023-04-08T00:54:40;94904.72;;;2.61;100.00
54465;BME280;40374;49.480;20.016;2023-04-08T00:57:08;94895.16;;;2.49;100.00
54465;BME280;40374;49.480;20.016;2023-04-08T00:59:36;94908.09;;;2.57;100.00
54465;BME280;40374;49.480;20.016;2023-04-08T01:05:01;94920.53;;;2.68;100.00
54465;BME280;40374;49.480;20.016;2023-04-08T01:07:49;94926.56;;;2.63;100.00
54465;BME280;40374;49.480;20.016;2023-04-08T01:10:22;94923.06;;;2.51;100.00
54465;BME280;40374;49.480;20.016;2023-04-08T01:13:05;94925.84;;;2.44;100.00
54465;BME280;40374;49.480;20.016;2023-04-08T01:15:36;94921.94;;;2.35;100.00
54465;BME280;40374;49.480;20.016;2023-04-08T01:18:10;94924.22;;;2.43;100.00
54465;BME280;40374;49.480;20.016;2023-04-08T01:20:43;94926.28;;;2.41;100.00
54465;BME280;40374;49.480;20.016;2023-04-08T01:23:24;94929.88;;;2.47;100.00
54465;BME280;40374;49.480;20.016;2023-04-08T01:25:56;94927.34;;;2.40;100.00
54465;BME280;40374;49.480;20.016;2023-04-08T01:28:26;94929.09;;;2.47;100.00
54465;BME280;40374;49.480;20.016;2023-04-08T01:30:56;94932.66;;;2.40;100.00
54465;BME280;40374;49.480;20.016;2023-04-08T01:33:27;94928.16;;;2.29;100.00
54465;BME280;40374;49.480;20.016;2023-04-08T01:35:56;94927.91;;;2.31;100.00
54465;BME280;40374;49.480;20.016;2023-04-08T01:38:25;94925.13;;;2.26;100.00
54465;BME280;40374;49.480;20.016;2023-04-08T01:40:53;94941.88;;;2.38;100.00
54465;BME280;40374;49.480;20.016;2023-04-08T01:43:23;94936.81;;;2.36;100.00
54465;BME280;40374;49.480;20.016;2023-04-08T01:45:51;94928.38;;;2.28;100.00
54465;BME280;40374;49.480;20.016;2023-04-08T01:48:24;94939.69;;;2.35;100.00
54465;BME280;40374;49.480;20.016;2023-04-08T01:50:53;94945.91;;;2.40;100.00
54465;BME280;40374;49.480;20.016;2023-04-08T01:53:22;94941.31;;;2.36;100.00
54465;BME280;40374;49.480;20.016;2023-04-08T01:55:56;94932.53;;;2.35;100.00
54465;BME280;40374;49.480;20.016;2023-04-08T01:58:30;94952.03;;;2.41;100.00
54465;BME280;40374;49.480;20.016;2023-04-08T02:00:59;94953.06;;;2.28;100.00
54465;BME280;40374;49.480;20.016;2023-04-08T02:03:27;94942.31;;;2.35;100.00
54465;BME280;40374;49.480;20.016;2023-04-08T02:05:56;94955.38;;;2.36;100.00
54465;BME280;40374;49.480;20.016;2023-04-08T02:08:24;94947.63;;;2.35;100.00
54465;BME280;40374;49.480;20.016;2023-04-08T02:10:53;94953.19;;;2.33;100.00
54465;BME280;40374;49.480;20.016;2023-04-08T02:13:20;94959.41;;;2.27;100.00
54465;BME280;40374;49.480;20.016;2023-04-08T02:15:51;94953.06;;;2.28;100.00
54465;BME280;40374;49.480;20.016;2023-04-08T02:18:24;94955.13;;;2.26;100.00
54465;BME280;40374;49.480;20.016;2023-04-08T02:21:02;94949.28;;;2.36;100.00
54465;BME280;40374;49.480;20.016;2023-04-08T02:23:36;94966.00;;;2.36;100.00
54465;BME280;40374;49.480;20.016;2023-04-08T02:26:07;94952.63;;;2.31;100.00
54465;BME280;40374;49.480;20.016;2023-04-08T02:28:40;94962.53;;;2.36;100.00
54465;BME280;40374;49.480;20.016;2023-04-08T02:31:10;94963.91;;;2.38;100.00
54465;BME280;40374;49.480;20.016;2023-04-08T02:33:45;94961.50;;;2.37;100.00
54465;BME280;40374;49.480;20.016;2023-04-08T02:36:13;94969.34;;;2.32;100.00
54465;BME280;40374;49.480;20.016;2023-04-08T02:38:41;94963.88;;;2.27;100.00
54465;BME280;40374;49.480;20.016;2023-04-08T02:41:08;94953.63;;;2.18;100.00
54465;BME280;40374;49.480;20.016;2023-04-08T02:43:38;94968.38;;;2.26;100.00
54465;BME280;40374;49.480;20.016;2023-04-08T02:46:06;94965.75;;;2.26;100.00
54465;BME280;40374;49.480;20.016;2023-04-08T02:48:35;94976.00;;;2.22;100.00
54465;BME280;40374;49.480;20.016;2023-04-08T02:51:03;94978.31;;;2.19;100.00
54465;BME280;40374;49.480;20.016;2023-04-08T02:53:30;94984.63;;;2.18;100.00
54465;BME280;40374;49.480;20.016;2023-04-08T02:55:58;94974.38;;;2.21;100.00
54465;BME280;40374;49.480;20.016;2023-04-08T02:58:25;94976.81;;;2.23;100.00
54465;BME280;40374;49.480;20.016;2023-04-08T03:00:53;94982.47;;;2.27;100.00
54465;BME280;40374;49.480;20.016;2023-04-08T03:03:20;94982.47;;;2.27;100.00
54465;BME280;40374;49.480;20.016;2023-04-08T03:05:57;94975.09;;;2.29;100.00
54465;BME280;40374;49.480;20.016;2023-04-08T03:08:24;94987.44;;;2.23;100.00
54465;BME280;40374;49.480;20.016;2023-04-08T03:10:52;94984.41;;;2.19;100.00
54465;BME280;40374;49.480;20.016;2023-04-08T03:13:20;94988.69;;;2.20;100.00
54465;BME280;40374;49.480;20.016;2023-04-08T03:15:47;94993.28;;;2.13;100.00
54465;BME280;40374;49.480;20.016;2023-04-08T03:18:14;94986.38;;;2.12;100.00
54465;BME280;40374;49.480;20.016;2023-04-08T03:20:42;94988.50;;;2.03;100.00
54465;BME280;40374;49.480;20.016;2023-04-08T03:23:09;94989.34;;;2.04;100.00
54465;BME280;40374;49.480;20.016;2023-04-08T03:25:37;94993.38;;;2.07;100.00
54465;BME280;40374;49.480;20.016;2023-04-08T03:28:04;94999.13;;;2.03;100.00
54465;BME280;40374;49.480;20.016;2023-04-08T03:30:32;95003.63;;;2.03;100.00
54465;BME280;40374;49.480;20.016;2023-04-08T03:32:59;94985.63;;;1.93;100.00
54465;BME280;40374;49.480;20.016;2023-04-08T03:35:29;95000.75;;;2.05;100.00
54465;BME280;40374;49.480;20.016;2023-04-08T03:37:56;95005.31;;;1.97;100.00
54465;BME280;40374;49.480;20.016;2023-04-08T03:40:26;95006.50;;;2.01;100.00
54465;BME280;40374;49.480;20.016;2023-04-08T03:42:54;95011.00;;;2.01;100.00
54465;BME280;40374;49.480;20.016;2023-04-08T03:45:21;94998.63;;;1.95;100.00
54465;BME280;40374;49.480;20.016;2023-04-08T03:47:48;95001.88;;;1.97;100.00
54465;BME280;40374;49.480;20.016;2023-04-08T03:50:16;95012.25;;;1.98;100.00
54465;BME280;40374;49.480;20.016;2023-04-08T03:52:43;95017.44;;;1.93;100.00
54465;BME280;40374;49.480;20.016;2023-04-08T03:55:11;95019.25;;;1.93;100.00
54465;BME280;40374;49.480;20.016;2023-04-08T03:57:38;95018.09;;;1.89;100.00
54465;BME280;40374;49.480;20.016;2023-04-08T04:00:06;95031.13;;;1.90;100.00
54465;BME280;40374;49.480;20.016;2023-04-08T04:02:37;95031.22;;;1.83;100.00
54465;BME280;40374;49.480;20.016;2023-04-08T04:05:06;95028.78;;;1.82;100.00
54465;BME280;40374;49.480;20.016;2023-04-08T04:07:34;95028.09;;;1.87;100.00
54465;BME280;40374;49.480;20.016;2023-04-08T04:10:01;95032.81;;;1.85;100.00
54465;BME280;40374;49.480;20.016;2023-04-08T04:12:32;95039.75;;;1.86;100.00
54465;BME280;40374;49.480;20.016;2023-04-08T04:14:59;95037.91;;;1.86;100.00
54465;BME280;40374;49.480;20.016;2023-04-08T04:17:27;95043.69;;;1.83;100.00
54465;BME280;40374;49.480;20.016;2023-04-08T04:19:54;95051.91;;;1.93;100.00
54465;BME280;40374;49.480;20.016;2023-04-08T04:22:23;95056.31;;;1.99;100.00
54465;BME280;40374;49.480;20.016;2023-04-08T04:24:50;95048.09;;;1.89;100.00
54465;BME280;40374;49.480;20.016;2023-04-08T04:27:18;95050.28;;;1.92;100.00
54465;BME280;40374;49.480;20.016;2023-04-08T04:29:45;95061.19;;;2.02;100.00
54465;BME280;40374;49.480;20.016;2023-04-08T04:32:12;95066.03;;;2.06;100.00
54465;BME280;40374;49.480;20.016;2023-04-08T04:34:40;95046.16;;;1.96;100.00
54465;BME280;40374;49.480;20.016;2023-04-08T04:37:08;95060.88;;;2.11;100.00
54465;BME280;40374;49.480;20.016;2023-04-08T04:39:36;95064.41;;;2.05;100.00
54465;BME280;40374;49.480;20.016;2023-04-08T04:42:03;95074.72;;;2.13;100.00
54465;BME280;40374;49.480;20.016;2023-04-08T04:44:31;95075.75;;;2.12;100.00
54465;BME280;40374;49.480;20.016;2023-04-08T04:46:59;95078.88;;;2.20;100.00
54465;BME280;40374;49.480;20.016;2023-04-08T04:49:26;95076.00;;;2.10;100.00
54465;BME280;40374;49.480;20.016;2023-04-08T04:51:54;95085.75;;;2.10;100.00
54465;BME280;40374;49.480;20.016;2023-04-08T04:54:22;95092.13;;;2.09;100.00
54465;BME280;40374;49.480;20.016;2023-04-08T04:56:49;95093.38;;;2.06;100.00
54465;BME280;40374;49.480;20.016;2023-04-08T04:59:16;95094.19;;;2.07;100.00
54465;BME280;40374;49.480;20.016;2023-04-08T05:01:44;95087.19;;;2.12;100.00
54465;BME280;40374;49.480;20.016;2023-04-08T05:04:11;95083.28;;;2.15;100.00
54465;BME280;40374;49.480;20.016;2023-04-08T05:06:39;95096.06;;;2.18;100.00
54465;BME280;40374;49.480;20.016;2023-04-08T05:09:06;95100.13;;;2.20;100.00
54465;BME280;40374;49.480;20.016;2023-04-08T05:11:34;95091.94;;;2.22;100.00
54465;BME280;40374;49.480;20.016;2023-04-08T05:14:01;95093.13;;;2.26;100.00
54465;BME280;40374;49.480;20.016;2023-04-08T05:16:28;95086.31;;;2.30;100.00
54465;BME280;40374;49.480;20.016;2023-04-08T05:18:56;95082.91;;;2.41;100.00
54465;BME280;40374;49.480;20.016;2023-04-08T05:21:24;95081.69;;;2.56;100.00
54465;BME280;40374;49.480;20.016;2023-04-08T05:23:52;95093.94;;;2.57;100.00
54465;BME280;40374;49.480;20.016;2023-04-08T05:26:20;95098.56;;;2.61;100.00
54465;BME280;40374;49.480;20.016;2023-04-08T05:28:54;95104.00;;;2.67;100.00
54465;BME280;40374;49.480;20.016;2023-04-08T05:31:21;95102.00;;;2.62;100.00
54465;BME280;40374;49.480;20.016;2023-04-08T05:33:49;95103.66;;;2.63;100.00
54465;BME280;40374;49.480;20.016;2023-04-08T05:36:17;95105.63;;;2.68;100.00
54465;BME280;40374;49.480;20.016;2023-04-08T05:38:44;95110.03;;;2.74;100.00
54465;BME280;40374;49.480;20.016;2023-04-08T05:41:11;95104.63;;;2.80;100.00
54465;BME280;40374;49.480;20.016;2023-04-08T05:43:39;95107.75;;;2.89;100.00
54465;BME280;40374;49.480;20.016;2023-04-08T05:46:08;95116.19;;;2.98;100.00
54465;BME280;40374;49.480;20.016;2023-04-08T05:48:36;95110.88;;;2.98;100.00
54465;BME280;40374;49.480;20.016;2023-04-08T05:51:03;95121.28;;;2.99;100.00
54465;BME280;40374;49.480;20.016;2023-04-08T05:53:31;95110.78;;;2.93;100.00
54465;BME280;40374;49.480;20.016;2023-04-08T05:55:58;95122.91;;;3.12;100.00
54465;BME280;40374;49.480;20.016;2023-04-08T05:58:26;95121.31;;;3.23;100.00
54465;BME280;40374;49.480;20.016;2023-04-08T06:00:56;95122.84;;;3.31;100.00
54465;BME280;40374;49.480;20.016;2023-04-08T06:03:23;95130.56;;;3.44;100.00
54465;BME280;40374;49.480;20.016;2023-04-08T06:05:54;95131.75;;;3.48;100.00
54465;BME280;40374;49.480;20.016;2023-04-08T06:08:21;95115.91;;;3.53;100.00
54465;BME280;40374;49.480;20.016;2023-04-08T06:10:52;95123.78;;;3.60;100.00
54465;BME280;40374;49.480;20.016;2023-04-08T06:13:19;95134.19;;;3.61;100.00
54465;BME280;40374;49.480;20.016;2023-04-08T06:15:47;95133.72;;;3.64;100.00
54465;BME280;40374;49.480;20.016;2023-04-08T06:18:16;95146.78;;;3.54;100.00
54465;BME280;40374;49.480;20.016;2023-04-08T06:20:43;95148.28;;;3.50;100.00
54465;BME280;40374;49.480;20.016;2023-04-08T06:23:11;95138.34;;;3.57;100.00
54465;BME280;40374;49.480;20.016;2023-04-08T06:25:39;95150.72;;;3.63;100.00
54465;BME280;40374;49.480;20.016;2023-04-08T06:28:07;95145.84;;;3.72;100.00
54465;BME280;40374;49.480;20.016;2023-04-08T06:30:34;95152.00;;;3.84;100.00
54465;BME280;40374;49.480;20.016;2023-04-08T06:33:02;95144.78;;;3.97;100.00
54465;BME280;40374;49.480;20.016;2023-04-08T06:35:29;95146.72;;;4.13;100.00
54465;BME280;40374;49.480;20.016;2023-04-08T06:37:58;95153.06;;;4.24;100.00
54465;BME280;40374;49.480;20.016;2023-04-08T06:40:26;95156.28;;;4.38;100.00
54465;BME280;40374;49.480;20.016;2023-04-08T06:42:53;95152.09;;;4.42;100.00
54465;BME280;40374;49.480;20.016;2023-04-08T06:45:34;95158.44;;;4.53;100.00
54465;BME280;40374;49.480;20.016;2023-04-08T06:48:01;95164.69;;;4.58;100.00
54465;BME280;40374;49.480;20.016;2023-04-08T06:50:29;95157.84;;;4.62;100.00
54465;BME280;40374;49.480;20.016;2023-04-08T06:52:59;95160.81;;;4.66;100.00
54465;BME280;40374;49.480;20.016;2023-04-08T06:55:26;95174.75;;;4.56;100.00
54465;BME280;40374;49.480;20.016;2023-04-08T06:57:54;95177.69;;;4.43;100.00
54465;BME280;40374;49.480;20.016;2023-04-08T07:00:21;95178.66;;;4.25;100.00
54465;BME280;40374;49.480;20.016;2023-04-08T07:02:49;95185.63;;;4.14;100.00
54465;BME280;40374;49.480;20.016;2023-04-08T07:05:17;95183.41;;;4.23;100.00
54465;BME280;40374;49.480;20.016;2023-04-08T07:07:44;95189.53;;;4.35;100.00
54465;BME280;40374;49.480;20.016;2023-04-08T07:10:14;95196.44;;;4.48;100.00
54465;BME280;40374;49.480;20.016;2023-04-08T07:12:42;95196.00;;;4.39;100.00
54465;BME280;40374;49.480;20.016;2023-04-08T07:15:10;95199.25;;;4.41;100.00
54465;BME280;40374;49.480;20.016;2023-04-08T07:17:37;95192.03;;;4.54;100.00
54465;BME280;40374;49.480;20.016;2023-04-08T07:20:06;95189.94;;;4.84;100.00
54465;BME280;40374;49.480;20.016;2023-04-08T07:22:33;95189.19;;;5.01;100.00
54465;BME280;40374;49.480;20.016;2023-04-08T07:25:01;95192.13;;;5.16;100.00
54465;BME280;40374;49.480;20.016;2023-04-08T07:27:29;95187.91;;;5.20;100.00
54465;BME280;40374;49.480;20.016;2023-04-08T07:29:56;95174.75;;;5.14;100.00
54465;BME280;40374;49.480;20.016;2023-04-08T07:32:24;95178.00;;;5.33;100.00
54465;BME280;40374;49.480;20.016;2023-04-08T07:34:51;95154.56;;;5.35;100.00
54465;BME280;40374;49.480;20.016;2023-04-08T07:37:19;95170.00;;;5.66;100.00
54465;BME280;40374;49.480;20.016;2023-04-08T07:39:46;95167.47;;;5.94;100.00
54465;BME280;40374;49.480;20.016;2023-04-08T07:42:14;95178.81;;;6.40;100.00
54465;BME280;40374;49.480;20.016;2023-04-08T07:44:41;95172.28;;;6.75;100.00
54465;BME280;40374;49.480;20.016;2023-04-08T07:47:09;95182.56;;;6.88;100.00
54465;BME280;40374;49.480;20.016;2023-04-08T07:49:37;95188.44;;;6.85;100.00
54465;BME280;40374;49.480;20.016;2023-04-08T07:52:05;95183.38;;;6.88;99.86
54465;BME280;40374;49.480;20.016;2023-04-08T07:54:33;95190.13;;;6.69;99.69
54465;BME280;40374;49.480;20.016;2023-04-08T07:57:01;95196.69;;;6.61;98.65
54465;BME280;40374;49.480;20.016;2023-04-08T07:59:28;95194.22;;;6.55;100.00
54465;BME280;40374;49.480;20.016;2023-04-08T08:01:57;95203.03;;;6.77;100.00
54465;BME280;40374;49.480;20.016;2023-04-08T08:04:24;95200.50;;;6.87;100.00
54465;BME280;40374;49.480;20.016;2023-04-08T08:06:52;95207.16;;;6.63;97.04
54465;BME280;40374;49.480;20.016;2023-04-08T08:09:20;95213.94;;;6.32;99.44
54465;BME280;40374;49.480;20.016;2023-04-08T08:11:48;95212.47;;;6.02;100.00
54465;BME280;40374;49.480;20.016;2023-04-08T08:14:15;95203.88;;;5.83;100.00
54465;BME280;40374;49.480;20.016;2023-04-08T08:16:43;95207.13;;;5.85;100.00
54465;BME280;40374;49.480;20.016;2023-04-08T08:19:10;95203.91;;;6.00;100.00
54465;BME280;40374;49.480;20.016;2023-04-08T08:21:40;95204.53;;;6.24;100.00
54465;BME280;40374;49.480;20.016;2023-04-08T08:24:07;95208.19;;;6.40;100.00
54465;BME280;40374;49.480;20.016;2023-04-08T08:26:35;95197.81;;;6.43;100.00
54465;BME280;40374;49.480;20.016;2023-04-08T08:29:05;95202.19;;;6.49;100.00
54465;BME280;40374;49.480;20.016;2023-04-08T08:31:35;95205.09;;;6.48;100.00
54465;BME280;40374;49.480;20.016;2023-04-08T08:38:17;95213.84;;;6.04;100.00
54465;BME280;40374;49.480;20.016;2023-04-08T08:40:45;95215.22;;;6.07;100.00
54465;BME280;40374;49.480;20.016;2023-04-08T08:43:12;95220.06;;;5.93;100.00
54465;BME280;40374;49.480;20.016;2023-04-08T08:45:41;95205.59;;;6.06;100.00
54465;BME280;40374;49.480;20.016;2023-04-08T08:48:08;95208.56;;;6.48;100.00
54465;BME280;40374;49.480;20.016;2023-04-08T08:50:36;95203.56;;;7.28;100.00
54465;BME280;40374;49.480;20.016;2023-04-08T08:53:04;95215.72;;;7.68;91.39
54465;BME280;40374;49.480;20.016;2023-04-08T08:55:34;95207.56;;;7.85;86.36
54465;BME280;40374;49.480;20.016;2023-04-08T08:58:28;95199.03;;;7.93;88.26
54465;BME280;40374;49.480;20.016;2023-04-08T09:00:55;95204.88;;;8.70;84.36
54465;BME280;40374;49.480;20.016;2023-04-08T09:03:26;95198.94;;;9.62;79.69
54465;BME280;40374;49.480;20.016;2023-04-08T09:05:56;95199.94;;;10.53;72.87
54465;BME280;40374;49.480;20.016;2023-04-08T09:08:34;95194.34;;;11.15;68.01
54465;BME280;40374;49.480;20.016;2023-04-08T09:13:39;95209.13;;;12.02;58.23
54465;BME280;40374;49.480;20.016;2023-04-08T09:16:09;95200.09;;;11.43;56.88
54465;BME280;40374;49.480;20.016;2023-04-08T09:18:37;95199.91;;;10.64;60.40
54465;BME280;40374;49.480;20.016;2023-04-08T09:21:09;95211.16;;;10.86;62.63
54465;BME280;40374;49.480;20.016;2023-04-08T09:23:48;95201.88;;;11.13;59.93
54465;BME280;40374;49.480;20.016;2023-04-08T09:26:22;95211.09;;;11.46;59.99
54465;BME280;40374;49.480;20.016;2023-04-08T09:31:27;95220.38;;;11.25;60.19
54465;BME280;40374;49.480;20.016;2023-04-08T09:33:57;95220.28;;;11.45;59.50
54465;BME280;40374;49.480;20.016;2023-04-08T09:36:25;95224.41;;;11.27;58.48
54465;BME280;40374;49.480;20.016;2023-04-08T09:38:54;95220.63;;;10.68;58.24
54465;BME280;40374;49.480;20.016;2023-04-08T09:41:22;95219.09;;;10.31;61.45
54465;BME280;40374;49.480;20.016;2023-04-08T09:43:53;95216.63;;;10.45;60.66
54465;BME280;40374;49.480;20.016;2023-04-08T09:46:28;95219.91;;;10.32;60.43
54465;BME280;40374;49.480;20.016;2023-04-08T09:49:45;95220.44;;;10.34;61.81
54465;BME280;40374;49.480;20.016;2023-04-08T09:52:36;95216.88;;;10.59;60.83
54465;BME280;40374;49.480;20.016;2023-04-08T09:55:11;95210.19;;;10.26;59.99
54465;BME280;40374;49.480;20.016;2023-04-08T09:58:21;95216.38;;;9.70;61.35
54465;BME280;40374;49.480;20.016;2023-04-08T10:00:48;95220.97;;;9.54;64.81
54465;BME280;40374;49.480;20.016;2023-04-08T10:03:40;95216.09;;;9.51;65.00
54465;BME280;40374;49.480;20.016;2023-04-08T10:06:12;95218.78;;;9.35;65.17
54465;BME280;40374;49.480;20.016;2023-04-08T10:08:40;95227.00;;;9.03;64.66
54465;BME280;40374;49.480;20.016;2023-04-08T10:11:09;95218.03;;;8.72;66.65
54465;BME280;40374;49.480;20.016;2023-04-08T10:13:41;95224.41;;;8.61;68.60
54465;BME280;40374;49.480;20.016;2023-04-08T10:16:30;95217.13;;;8.51;70.17
54465;BME280;40374;49.480;20.016;2023-04-08T10:18:58;95212.00;;;8.44;72.44
54465;BME280;40374;49.480;20.016;2023-04-08T10:21:35;95222.75;;;8.54;73.19
54465;BME280;40374;49.480;20.016;2023-04-08T10:24:07;95231.72;;;8.76;76.03
54465;BME280;40374;49.480;20.016;2023-04-08T10:26:37;95235.06;;;9.08;77.73
54465;BME280;40374;49.480;20.016;2023-04-08T10:31:46;95221.25;;;9.73;70.23
54465;BME280;40374;49.480;20.016;2023-04-08T10:34:27;95217.75;;;10.13;66.61
54465;BME280;40374;49.480;20.016;2023-04-08T10:36:56;95222.59;;;10.32;63.81
54465;BME280;40374;49.480;20.016;2023-04-08T10:39:25;95218.81;;;10.48;63.60
54465;BME280;40374;49.480;20.016;2023-04-08T10:41:53;95216.66;;;10.50;60.82
54465;BME280;40374;49.480;20.016;2023-04-08T10:44:24;95218.69;;;10.79;61.63
54465;BME280;40374;49.480;20.016;2023-04-08T10:46:53;95220.38;;;11.25;61.03
54465;BME280;40374;49.480;20.016;2023-04-08T10:49:21;95217.31;;;11.47;60.97
54465;BME280;40374;49.480;20.016;2023-04-08T10:51:48;95217.59;;;11.45;60.04
54465;BME280;40374;49.480;20.016;2023-04-08T10:54:17;95213.47;;;11.13;58.83
54465;BME280;40374;49.480;20.016;2023-04-08T10:56:50;95211.06;;;11.07;60.96
54465;BME280;40374;49.480;20.016;2023-04-08T10:59:29;95205.84;;;11.26;59.39
54465;BME280;40374;49.480;20.016;2023-04-08T11:01:58;95212.34;;;11.14;59.27
54465;BME280;40374;49.480;20.016;2023-04-08T11:04:27;95204.59;;;11.08;59.75
54465;BME280;40374;49.480;20.016;2023-04-08T11:06:55;95206.72;;;11.16;60.88
54465;BME280;40374;49.480;20.016;2023-04-08T11:09:22;95201.59;;;11.14;59.38
54465;BME280;40374;49.480;20.016;2023-04-08T11:11:51;95203.88;;;10.92;59.59
54465;BME280;40374;49.480;20.016;2023-04-08T11:14:18;95208.53;;;10.66;61.47
54465;BME280;40374;49.480;20.016;2023-04-08T11:16:48;95208.22;;;10.72;61.75
54465;BME280;40374;49.480;20.016;2023-04-08T11:19:16;95201.94;;;10.97;60.67
54465;BME280;40374;49.480;20.016;2023-04-08T11:21:44;95204.53;;;11.18;60.66
54465;BME280;40374;49.480;20.016;2023-04-08T11:24:12;95200.69;;;11.34;60.15
54465;BME280;40374;49.480;20.016;2023-04-08T11:26:39;95206.00;;;11.45;58.94
54465;BME280;40374;49.480;20.016;2023-04-08T11:29:10;95200.09;;;11.43;59.60
54465;BME280;40374;49.480;20.016;2023-04-08T11:31:42;95197.31;;;11.58;59.89
54465;BME280;40374;49.480;20.016;2023-04-08T11:34:10;95193.09;;;12.15;59.15
54465;BME280;40374;49.480;20.016;2023-04-08T11:36:40;95187.06;;;12.53;57.56
54465;BME280;40374;49.480;20.016;2023-04-08T11:39:08;95194.69;;;12.46;55.30
54465;BME280;40374;49.480;20.016;2023-04-08T11:41:38;95206.03;;;12.18;55.67
54465;BME280;40374;49.480;20.016;2023-04-08T11:44:08;95200.06;;;11.87;55.90
54465;BME280;40374;49.480;20.016;2023-04-08T11:46:38;95186.25;;;11.60;56.52
54465;BME280;40374;49.480;20.016;2023-04-08T11:49:07;95200.09;;;11.43;55.60
54465;BME280;40374;49.480;20.016;2023-04-08T11:51:56;95199.56;;;10.91;57.10
54465;BME280;40374;49.480;20.016;2023-04-08T11:54:29;95196.78;;;10.36;58.45
54465;BME280;40374;49.480;20.016;2023-04-08T11:56:58;95198.94;;;9.78;59.30
54465;BME280;40374;49.480;20.016;2023-04-08T11:59:26;95212.00;;;9.07;60.70
54465;BME280;40374;49.480;20.016;2023-04-08T12:01:55;95209.31;;;8.44;65.84
54465;BME280;40374;49.480;20.016;2023-04-08T12:04:23;95195.56;;;7.93;75.53
54465;BME280;40374;49.480;20.016;2023-04-08T12:06:51;95214.44;;;7.76;82.58
54465;BME280;40374;49.480;20.016;2023-04-08T12:09:20;95214.34;;;7.61;86.08
54465;BME280;40374;49.480;20.016;2023-04-08T12:11:47;95223.63;;;7.53;94.05
54465;BME280;40374;49.480;20.016;2023-04-08T12:14:15;95221.56;;;7.33;100.00
54465;BME280;40374;49.480;20.016;2023-04-08T12:16:42;95213.88;;;7.15;100.00
54465;BME280;40374;49.480;20.016;2023-04-08T12:19:10;95204.50;;;7.12;100.00
54465;BME280;40374;49.480;20.016;2023-04-08T12:21:37;95213.88;;;7.15;100.00
54465;BME280;40374;49.480;20.016;2023-04-08T12:24:05;95204.31;;;6.97;100.00
54465;BME280;40374;49.480;20.016;2023-04-08T12:26:33;95222.13;;;7.08;100.00
54465;BME280;40374;49.480;20.016;2023-04-08T12:29:01;95219.03;;;7.21;100.00
54465;BME280;40374;49.480;20.016;2023-04-08T12:31:28;95217.47;;;7.25;100.00
54465;BME280;40374;49.480;20.016;2023-04-08T12:33:56;95212.69;;;7.27;100.00
54465;BME280;40374;49.480;20.016;2023-04-08T12:36:23;95217.47;;;7.52;100.00
54465;BME280;40374;49.480;20.016;2023-04-08T12:38:51;95226.91;;;7.60;100.00
54465;BME280;40374;49.480;20.016;2023-04-08T12:41:19;95217.81;;;7.61;100.00
54465;BME280;40374;49.480;20.016;2023-04-08T12:43:49;95221.56;;;7.33;100.00
54465;BME280;40374;49.480;20.016;2023-04-08T12:46:16;95221.84;;;7.37;100.00
54465;BME280;40374;49.480;20.016;2023-04-08T12:48:45;95222.13;;;7.35;100.00
54465;BME280;40374;49.480;20.016;2023-04-08T12:51:15;95223.78;;;7.41;100.00
54465;BME280;40374;49.480;20.016;2023-04-08T12:53:43;95228.16;;;7.52;100.00
54465;BME280;40374;49.480;20.016;2023-04-08T12:56:10;95217.97;;;7.49;100.00
54465;BME280;40374;49.480;20.016;2023-04-08T12:58:38;95220.94;;;7.53;100.00
54465;BME280;40374;49.480;20.016;2023-04-08T13:01:08;95230.03;;;7.52;100.00
54465;BME280;40374;49.480;20.016;2023-04-08T13:03:36;95221.75;;;7.53;100.00
54465;BME280;40374;49.480;20.016;2023-04-08T13:06:03;95224.28;;;7.65;100.00
54465;BME280;40374;49.480;20.016;2023-04-08T13:08:32;95231.78;;;7.68;100.00
54465;BME280;40374;49.480;20.016;2023-04-08T13:11:02;95228.19;;;7.58;100.00
54465;BME280;40374;49.480;20.016;2023-04-08T13:13:31;95232.25;;;7.60;100.00
54465;BME280;40374;49.480;20.016;2023-04-08T13:15:59;95214.03;;;7.57;100.00